Time;durP1;ratioP1;P1;durP2;ratioP2;P2;SDS_P1;SDS_P2;PMS_P1;PMS_P2;Temp;Humidity;BMP_temperature;BMP_pressure;BME280_temperature;BME280_humidity;BME280_pressure;Samples;Min_cycle;Max_cycle;Signal;HPM_P1;HPM_P2
2022/12/02 00:01:34;;;;;;;35.45;17.63;;;4.20;28.30;;;;;;7394399;19;20011;-70
2022/12/02 00:04:12;;;;;;;35.50;17.05;;;4.20;28.30;;;;;;7373746;19;20118;-70
2022/12/02 00:06:41;;;;;;;34.20;17.83;;;4.20;28.10;;;;;;7372917;19;20018;-70
2022/12/02 00:09:21;;;;;;;35.58;17.70;;;4.20;28.10;;;;;;7372351;19;20077;-70
2022/12/02 00:11:51;;;;;;;33.53;17.65;;;4.10;27.70;;;;;;7373745;19;20010;-70
2022/12/02 00:14:25;;;;;;;32.97;17.85;;;4.20;28.40;;;;;;7373108;19;20014;-69
2022/12/02 00:16:55;;;;;;;36.88;18.30;;;4.10;28.20;;;;;;7371328;19;20006;-70
2022/12/02 00:19:25;;;;;;;36.55;17.30;;;4.10;27.90;;;;;;7392579;19;20003;-70
2022/12/02 00:21:55;;;;;;;32.53;17.05;;;4.10;28.50;;;;;;7372484;19;20016;-71
2022/12/02 00:24:28;;;;;;;28.85;16.98;;;4.10;28.50;;;;;;7372754;19;20020;-71
2022/12/02 00:26:58;;;;;;;34.92;17.58;;;4.10;28.90;;;;;;7371560;19;20011;-71
2022/12/02 00:29:28;;;;;;;35.63;17.00;;;4.10;29.10;;;;;;7370730;19;20081;-70
2022/12/02 00:31:57;;;;;;;34.30;17.73;;;4.10;28.80;;;;;;7372416;19;20038;-71
2022/12/02 00:34:27;;;;;;;29.45;17.38;;;4.10;29.20;;;;;;7393017;19;20006;-70
2022/12/02 00:36:57;;;;;;;33.30;18.27;;;4.10;29.30;;;;;;7371383;19;20018;-69
2022/12/02 00:39:29;;;;;;;32.53;16.77;;;4.10;29.20;;;;;;7369916;19;20014;-69
2022/12/02 00:41:59;;;;;;;35.97;18.33;;;4.10;29.20;;;;;;7373058;19;20014;-70
2022/12/02 00:47:11;;;;;;;34.95;18.73;;;4.00;29.30;;;;;;7372916;19;20010;-69
2022/12/02 00:49:41;;;;;;;32.33;17.23;;;4.10;29.30;;;;;;7391371;19;20373;-70
2022/12/02 00:52:11;;;;;;;34.78;18.15;;;4.10;29.20;;;;;;7372066;19;20006;-70
2022/12/02 00:54:43;;;;;;;32.17;16.63;;;4.00;29.10;;;;;;7372033;19;20014;-70
2022/12/02 00:57:13;;;;;;;34.17;18.15;;;4.10;29.30;;;;;;7370557;19;20393;-70
2022/12/02 00:59:43;;;;;;;33.17;17.50;;;4.10;29.40;;;;;;7368925;19;20463;-70
2022/12/02 01:02:13;;;;;;;31.98;16.75;;;4.10;29.20;;;;;;7372100;19;20469;-70
2022/12/02 01:04:42;;;;;;;34.03;16.65;;;4.10;28.90;;;;;;7393294;19;20054;-70
2022/12/02 01:07:13;;;;;;;34.53;16.67;;;4.10;28.90;;;;;;7371457;19;20390;-70
2022/12/02 01:09:46;;;;;;;33.17;17.65;;;4.10;28.70;;;;;;7369955;19;20009;-69
2022/12/02 01:12:16;;;;;;;32.15;16.13;;;4.10;28.60;;;;;;7371842;19;20092;-70
2022/12/02 01:14:45;;;;;;;36.47;17.80;;;4.10;29.00;;;;;;7370973;19;20014;-70
2022/12/02 01:17:15;;;;;;;31.35;16.30;;;4.10;28.70;;;;;;7371303;19;20015;-70
2022/12/02 01:19:45;;;;;;;34.58;17.65;;;4.10;28.80;;;;;;7391445;19;20010;-70
2022/12/02 01:22:15;;;;;;;33.83;17.17;;;4.10;28.70;;;;;;7370298;19;20006;-70
2022/12/02 01:24:47;;;;;;;30.08;17.10;;;4.00;28.70;;;;;;7370642;19;20409;-69
2022/12/02 01:27:18;;;;;;;31.92;16.83;;;4.00;28.70;;;;;;7371720;19;20009;-70
2022/12/02 01:29:48;;;;;;;30.52;16.70;;;4.00;29.00;;;;;;7368810;19;20425;-70
2022/12/02 01:32:18;;;;;;;32.83;17.15;;;4.00;29.10;;;;;;7371690;19;20038;-71
2022/12/02 01:34:48;;;;;;;34.42;18.10;;;4.00;29.10;;;;;;7379278;19;20078;-71
2022/12/02 01:37:18;;;;;;;30.25;16.48;;;4.00;29.30;;;;;;7391743;19;20026;-69
2022/12/02 01:39:51;;;;;;;32.97;17.33;;;4.00;29.20;;;;;;7368089;19;20100;-70
2022/12/02 01:42:21;;;;;;;33.00;16.90;;;4.00;29.10;;;;;;7369625;19;20464;-70
2022/12/02 01:44:51;;;;;;;33.35;16.77;;;4.00;29.10;;;;;;7370660;19;20014;-70
2022/12/02 01:47:21;;;;;;;33.60;16.65;;;4.00;29.10;;;;;;7368716;19;20023;-70
2022/12/02 01:49:51;;;;;;;32.67;17.33;;;4.00;29.00;;;;;;7368282;19;20018;-70
2022/12/02 01:52:21;;;;;;;31.33;16.30;;;4.00;29.10;;;;;;7390792;19;20380;-70
2022/12/02 01:54:55;;;;;;;34.28;17.30;;;3.90;28.70;;;;;;7369807;19;20003;-70
2022/12/02 01:57:28;;;;;;;36.27;17.67;;;3.90;29.00;;;;;;7368593;19;20090;-70
2022/12/02 01:59:59;;;;;;;33.53;18.15;;;4.00;29.10;;;;;;7369509;19;20021;-69
2022/12/02 02:02:30;;;;;;;32.78;17.52;;;4.00;29.10;;;;;;7368363;19;20391;-70
2022/12/02 02:05:03;;;;;;;33.75;16.98;;;4.00;29.10;;;;;;7369838;19;20019;-70
2022/12/02 02:07:33;;;;;;;33.67;17.52;;;4.00;29.10;;;;;;7392119;19;20006;-70
2022/12/02 02:10:07;;;;;;;34.67;17.38;;;3.90;28.80;;;;;;7367715;19;20010;-70
2022/12/02 02:12:38;;;;;;;28.83;16.23;;;4.00;29.00;;;;;;7368896;19;20027;-70
2022/12/02 02:15:11;;;;;;;29.75;16.30;;;3.90;28.70;;;;;;7370644;19;20363;-70
2022/12/02 02:17:41;;;;;;;32.00;17.02;;;3.90;29.10;;;;;;7369172;19;20017;-71
2022/12/02 02:20:15;;;;;;;31.60;16.92;;;3.90;28.90;;;;;;7367101;19;20086;-71
2022/12/02 02:22:49;;;;;;;31.63;16.35;;;4.00;29.10;;;;;;7390419;19;20372;-70
2022/12/02 02:25:21;;;;;;;;;;;4.00;28.70;;;;;;7368890;19;20006;-70
2022/12/02 02:27:54;;;;;;;33.08;16.77;;;4.00;28.80;;;;;;7368907;19;20401;-70
2022/12/02 02:30:25;;;;;;;30.52;16.15;;;4.10;28.50;;;;;;7367922;19;20034;-71
2022/12/02 02:32:55;;;;;;;31.63;17.02;;;4.00;28.50;;;;;;7369061;19;20042;-71
2022/12/02 02:35:26;;;;;;;28.30;15.38;;;4.10;27.90;;;;;;7368021;19;20490;-71
2022/12/02 02:37:57;;;;;;;28.83;15.15;;;4.00;27.70;;;;;;7368188;19;20033;-70
2022/12/02 02:40:31;;;;;;;29.13;15.85;;;3.90;27.50;;;;;;7387061;19;20007;-71
2022/12/02 02:43:03;;;;;;;28.67;15.82;;;4.00;28.40;;;;;;7369175;19;20011;-69
2022/12/02 02:45:35;;;;;;;30.25;15.35;;;4.00;27.80;;;;;;7368335;19;20010;-70
2022/12/02 02:48:08;;;;;;;29.55;15.20;;;3.90;28.00;;;;;;7368593;19;20003;-70
2022/12/02 02:50:40;;;;;;;30.88;16.35;;;3.90;27.80;;;;;;7368105;19;20022;-70
2022/12/02 02:53:10;;;;;;;34.63;17.02;;;3.90;28.30;;;;;;7369376;19;20043;-70
2022/12/02 02:55:43;;;;;;;34.50;16.83;;;3.90;28.90;;;;;;7390744;19;20090;-69
2022/12/02 02:58:20;;;;;;;29.23;15.95;;;3.90;28.90;;;;;;7363664;19;20466;-70
2022/12/02 03:00:54;;;;;;;30.13;16.60;;;3.90;29.10;;;;;;7368022;19;20425;-70
2022/12/02 03:03:28;;;;;;;31.63;17.02;;;3.90;29.10;;;;;;7367380;19;20010;-70
2022/12/02 03:05:59;;;;;;;33.45;16.38;;;3.90;29.10;;;;;;7368599;19;20018;-70
2022/12/02 03:08:31;;;;;;;31.85;16.45;;;3.80;29.20;;;;;;7365865;19;20021;-71
2022/12/02 03:11:04;;;;;;;33.38;16.88;;;3.90;29.60;;;;;;7368173;19;20015;-70
2022/12/02 03:13:37;;;;;;;34.05;16.05;;;3.90;30.40;;;;;;7388651;19;20367;-71
2022/12/02 03:16:09;;;;;;;31.85;15.82;;;3.90;30.90;;;;;;7365462;19;20011;-70
2022/12/02 03:18:41;;;;;;;31.73;16.73;;;3.80;30.90;;;;;;7365071;19;20015;-70
2022/12/02 03:21:11;;;;;;;32.63;16.77;;;3.80;31.20;;;;;;7368111;19;20011;-70
2022/12/02 03:23:41;;;;;;;32.75;16.65;;;3.80;32.00;;;;;;7371808;19;20519;-70
2022/12/02 03:26:14;;;;;;;28.10;15.30;;;3.80;32.20;;;;;;7375563;19;20011;-71
2022/12/02 03:28:44;;;;;;;30.00;16.02;;;3.80;32.70;;;;;;7394979;19;20056;-71
2022/12/02 03:31:15;;;;;;;31.52;16.38;;;3.80;32.70;;;;;;7375231;19;20007;-71
2022/12/02 03:33:45;;;;;;;27.70;15.30;;;3.80;32.80;;;;;;7373430;19;20010;-69
2022/12/02 03:36:16;;;;;;;29.20;16.75;;;3.80;31.80;;;;;;7374713;19;20014;-69
2022/12/02 03:38:46;;;;;;;32.92;17.40;;;3.80;32.20;;;;;;7371753;19;20014;-69
2022/12/02 03:41:19;;;;;;;31.92;16.13;;;3.80;32.30;;;;;;7375407;19;20470;-70
2022/12/02 03:43:49;;;;;;;33.92;17.00;;;3.80;31.60;;;;;;7378036;19;20021;-70
2022/12/02 03:46:19;;;;;;;33.88;17.02;;;3.80;31.80;;;;;;7397257;19;20018;-70
2022/12/02 03:48:49;;;;;;;31.10;16.25;;;3.90;31.50;;;;;;7372076;19;20450;-69
2022/12/02 03:51:19;;;;;;;34.50;16.85;;;3.90;31.10;;;;;;7374972;19;20533;-70
2022/12/02 03:53:49;;;;;;;30.60;16.13;;;3.80;30.50;;;;;;7374535;19;20014;-70
2022/12/02 03:56:22;;;;;;;34.05;16.30;;;3.80;31.20;;;;;;7374838;19;20478;-70
2022/12/02 03:58:53;;;;;;;32.42;16.02;;;3.80;31.20;;;;;;7371401;19;20608;-70
2022/12/02 04:01:24;;;;;;;34.50;16.55;;;3.80;31.40;;;;;;7394349;19;20035;-70
2022/12/02 04:03:54;;;;;;;26.85;15.88;;;3.90;30.70;;;;;;7373168;19;20017;-70
2022/12/02 04:06:24;;;;;;;29.40;15.20;;;3.80;30.60;;;;;;7372681;19;20014;-70
2022/12/02 04:08:54;;;;;;;32.72;16.83;;;3.80;30.70;;;;;;7372240;19;20014;-70
2022/12/02 04:11:26;;;;;;;29.80;16.15;;;3.80;30.60;;;;;;7373207;19;20120;-70
2022/12/02 04:13:56;;;;;;;31.05;15.70;;;3.80;30.80;;;;;;7372470;19;20502;-70
2022/12/02 04:16:26;;;;;;;28.20;16.20;;;3.80;30.70;;;;;;7395237;19;20024;-70
2022/12/02 04:18:56;;;;;;;27.77;15.45;;;3.80;31.20;;;;;;7371000;19;20032;-70
2022/12/02 04:21:26;;;;;;;32.65;16.55;;;3.80;31.20;;;;;;7373244;19;20059;-70
2022/12/02 04:23:56;;;;;;;32.05;16.50;;;3.90;30.80;;;;;;7372951;19;20398;-70
2022/12/02 04:26:28;;;;;;;32.75;16.40;;;3.80;30.60;;;;;;7371598;19;20006;-70
2022/12/02 04:28:58;;;;;;;34.85;16.90;;;3.80;30.90;;;;;;7371810;19;20374;-69
2022/12/02 04:31:28;;;;;;;31.30;16.30;;;3.80;30.50;;;;;;7394032;19;20010;-70
2022/12/02 04:33:58;;;;;;;33.15;17.00;;;3.80;31.10;;;;;;7370601;19;20101;-70
2022/12/02 04:36:28;;;;;;;35.47;17.05;;;3.80;31.00;;;;;;7372188;19;20014;-70
2022/12/02 04:38:57;;;;;;;30.60;15.38;;;3.80;31.30;;;;;;7371287;19;20475;-70
2022/12/02 04:41:30;;;;;;;33.00;16.65;;;3.70;30.90;;;;;;7371746;19;20010;-70
2022/12/02 04:44:00;;;;;;;35.50;17.30;;;3.70;31.40;;;;;;7372666;19;20010;-70
2022/12/02 04:46:30;;;;;;;38.83;18.08;;;3.80;31.80;;;;;;7392917;19;20466;-70
2022/12/02 04:49:00;;;;;;;32.53;16.20;;;3.80;31.10;;;;;;7370384;19;20023;-70
2022/12/02 04:51:31;;;;;;;30.60;17.23;;;3.90;31.50;;;;;;7371498;19;20007;-70
2022/12/02 04:54:01;;;;;;;30.60;16.25;;;3.90;31.80;;;;;;7372566;19;20027;-70
2022/12/02 04:56:33;;;;;;;33.28;16.63;;;3.90;31.50;;;;;;7371377;19;20007;-69
2022/12/02 04:59:03;;;;;;;33.63;16.63;;;3.80;31.30;;;;;;7370840;19;20017;-69
2022/12/02 05:01:33;;;;;;;34.63;17.00;;;3.90;31.60;;;;;;7392361;19;20726;-70
2022/12/02 05:04:02;;;;;;;34.60;17.10;;;3.80;30.80;;;;;;7371457;19;20031;-70
2022/12/02 05:06:32;;;;;;;35.35;17.35;;;3.90;31.30;;;;;;7371282;19;20023;-70
2022/12/02 05:09:02;;;;;;;35.25;17.98;;;3.90;31.50;;;;;;7369818;19;20062;-70
2022/12/02 05:11:35;;;;;;;36.03;16.67;;;3.90;31.10;;;;;;7370742;19;20303;-69
2022/12/02 05:14:05;;;;;;;29.92;16.10;;;3.80;30.70;;;;;;7371648;19;20015;-69
2022/12/02 05:16:35;;;;;;;34.42;17.58;;;3.80;30.40;;;;;;7392554;19;20006;-70
2022/12/02 05:19:05;;;;;;;33.88;16.88;;;3.80;30.90;;;;;;7369640;19;20482;-70
2022/12/02 05:21:35;;;;;;;34.67;17.13;;;3.80;31.40;;;;;;7371243;19;20095;-70
2022/12/02 05:24:05;;;;;;;34.67;17.45;;;3.80;31.30;;;;;;7371227;19;20011;-69
2022/12/02 05:26:38;;;;;;;32.63;16.88;;;3.80;31.50;;;;;;7371525;19;20010;-70
2022/12/02 05:29:08;;;;;;;37.22;16.45;;;3.80;31.60;;;;;;7370467;19;20471;-70
2022/12/02 05:31:38;;;;;;;38.10;18.42;;;3.80;32.00;;;;;;7392305;19;20024;-70
2022/12/02 05:34:08;;;;;;;33.65;17.08;;;3.80;32.30;;;;;;7370792;19;20038;-70
2022/12/02 05:36:38;;;;;;;36.95;18.35;;;3.80;31.90;;;;;;7370033;19;20021;-69
2022/12/02 05:39:08;;;;;;;34.50;17.73;;;3.80;32.20;;;;;;7369189;19;20011;-69
2022/12/02 05:41:40;;;;;;;33.03;17.15;;;3.80;32.00;;;;;;7370677;19;20062;-69
2022/12/02 05:44:21;;;;;;;33.05;17.20;;;3.80;32.50;;;;;;7371037;19;20478;-70
2022/12/02 05:46:52;;;;;;;42.00;19.02;;;3.80;32.80;;;;;;7368832;19;20367;-70
2022/12/02 05:49:25;;;;;;;39.20;19.48;;;3.80;32.90;;;;;;7388957;19;20720;-69
2022/12/02 05:51:58;;;;;;;38.03;19.73;;;3.80;32.90;;;;;;7369384;19;20082;-70
2022/12/02 05:54:29;;;;;;;42.50;18.92;;;3.80;33.70;;;;;;7369562;19;20034;-69
2022/12/02 05:57:08;;;;;;;40.63;18.67;;;3.80;34.70;;;;;;7368981;19;20011;-70
2022/12/02 05:59:41;;;;;;;44.13;19.33;;;3.80;34.70;;;;;;7368658;19;20038;-70
2022/12/02 06:02:24;;;;;;;40.20;18.92;;;3.80;35.10;;;;;;7370006;19;20825;-70
2022/12/02 06:04:57;;;;;;;35.13;18.83;;;3.80;35.70;;;;;;7367331;19;20007;-71
2022/12/02 06:07:26;;;;;;;38.55;18.90;;;3.70;36.00;;;;;;7391576;19;20007;-70
2022/12/02 06:09:56;;;;;;;41.75;20.42;;;3.80;36.40;;;;;;7367287;19;20474;-70
2022/12/02 06:12:29;;;;;;;42.35;21.42;;;3.80;37.00;;;;;;7368346;19;20014;-70
2022/12/02 06:14:59;;;;;;;46.35;20.73;;;3.70;37.00;;;;;;7369798;19;20086;-69
2022/12/02 06:17:29;;;;;;;44.05;19.40;;;3.70;36.90;;;;;;7368512;19;20011;-70
2022/12/02 06:19:59;;;;;;;44.03;21.25;;;3.70;37.20;;;;;;7367446;19;20019;-70
2022/12/02 06:22:33;;;;;;;42.75;19.63;;;3.80;37.80;;;;;;7390139;19;20018;-70
2022/12/02 06:25:06;;;;;;;45.38;20.67;;;3.80;38.60;;;;;;7369146;19;20015;-70
2022/12/02 06:27:38;;;;;;;47.95;20.75;;;3.70;38.50;;;;;;7367882;19;20011;-69
2022/12/02 06:30:15;;;;;;;43.63;20.10;;;3.80;38.70;;;;;;7368193;19;20035;-69
2022/12/02 06:32:50;;;;;;;46.20;20.67;;;3.70;37.90;;;;;;7367905;19;20022;-69
2022/12/02 06:35:24;;;;;;;48.40;20.83;;;3.70;39.30;;;;;;7367647;19;20010;-70
2022/12/02 06:37:57;;;;;;;47.10;21.98;;;3.70;39.50;;;;;;7367883;19;20007;-70
2022/12/02 06:40:31;;;;;;;47.03;20.63;;;3.60;39.80;;;;;;7387166;19;20014;-70
2022/12/02 06:43:09;;;;;;;44.33;20.67;;;3.70;40.90;;;;;;7368262;19;20026;-70
2022/12/02 06:45:38;;;;;;;42.05;21.25;;;3.70;41.10;;;;;;7367146;19;20022;-69
2022/12/02 06:48:28;;;;;;;48.10;21.55;;;3.70;41.10;;;;;;7367523;19;20556;-70
2022/12/02 06:51:12;;;;;;;46.92;20.98;;;3.70;41.80;;;;;;7366680;19;20521;-70
2022/12/02 06:53:43;;;;;;;40.05;20.42;;;3.70;41.50;;;;;;7367795;19;20010;-70
2022/12/02 06:56:23;;;;;;;49.08;22.08;;;3.70;41.60;;;;;;7368534;19;20010;-70
2022/12/02 06:58:59;;;;;;;47.38;21.50;;;3.70;42.10;;;;;;7370675;19;20010;-70
2022/12/02 07:01:37;;;;;;;45.38;21.83;;;3.70;41.90;;;;;;7393312;19;20007;-70
2022/12/02 07:04:29;;;;;;;44.67;20.75;;;3.70;41.40;;;;;;7374128;19;20057;-69
2022/12/02 07:07:05;;;;;;;44.63;20.02;;;3.70;41.10;;;;;;7374511;19;20006;-70
2022/12/02 07:09:39;;;;;;;46.40;20.90;;;3.70;41.90;;;;;;7373400;19;20013;-70
2022/12/02 07:12:16;;;;;;;45.08;21.35;;;3.70;41.20;;;;;;7375452;19;20029;-69
2022/12/02 07:14:51;;;;;;;43.78;21.60;;;3.70;42.10;;;;;;7373711;19;20011;-71
2022/12/02 07:17:24;;;;;;;47.25;20.98;;;3.70;41.70;;;;;;7372908;19;20552;-70
2022/12/02 07:20:03;;;;;;;48.33;21.80;;;3.60;41.00;;;;;;7372253;19;20074;-71
2022/12/02 07:22:36;;;;;;;48.35;21.55;;;3.60;41.30;;;;;;7395228;19;20011;-71
2022/12/02 07:25:35;;;;;;;43.65;21.52;;;3.60;41.10;;;;;;7374604;19;20015;-70
2022/12/02 07:28:24;;;;;;;42.92;19.92;;;3.60;41.80;;;;;;7371706;19;20358;-70
2022/12/02 07:31:03;;;;;;;43.75;20.73;;;3.70;41.80;;;;;;7373682;19;20018;-70
2022/12/02 07:33:32;;;;;;;43.47;19.52;;;3.60;42.00;;;;;;7374008;19;20015;-70
2022/12/02 07:36:02;;;;;;;45.78;20.75;;;3.60;41.50;;;;;;7373150;19;20027;-70
2022/12/02 07:38:32;;;;;;;42.70;19.92;;;3.70;42.50;;;;;;7372921;19;20015;-70
2022/12/02 07:41:22;;;;;;;42.45;20.63;;;3.70;43.00;;;;;;7371976;19;20010;-70
2022/12/02 07:43:53;;;;;;;47.97;21.77;;;3.70;43.10;;;;;;7373768;19;20022;-70
2022/12/02 07:46:26;;;;;;;49.30;21.50;;;3.70;42.90;;;;;;7394585;19;20010;-70
2022/12/02 07:48:56;;;;;;;47.75;21.55;;;3.70;41.60;;;;;;7371423;19;20036;-70
2022/12/02 07:51:27;;;;;;;44.58;21.35;;;3.60;42.00;;;;;;7371445;19;20394;-69
2022/12/02 07:53:57;;;;;;;45.13;20.83;;;3.70;42.10;;;;;;7372836;19;20006;-70
2022/12/02 07:56:27;;;;;;;41.70;20.58;;;3.80;41.80;;;;;;7371889;19;20017;-71
2022/12/02 07:58:56;;;;;;;48.28;21.58;;;3.70;41.10;;;;;;7371525;19;20071;-70
2022/12/02 08:01:46;;;;;;;45.65;21.15;;;3.70;41.50;;;;;;7392776;19;20363;-67
2022/12/02 08:04:16;;;;;;;43.20;20.48;;;3.70;41.80;;;;;;7374180;19;20003;-70
2022/12/02 08:06:46;;;;;;;44.88;21.77;;;3.60;42.00;;;;;;7372304;19;20014;-70
2022/12/02 08:09:15;;;;;;;43.30;21.05;;;3.60;41.60;;;;;;7370872;19;20010;-68
2022/12/02 08:11:45;;;;;;;45.80;21.23;;;3.50;42.60;;;;;;7371945;19;20022;-70
2022/12/02 08:14:15;;;;;;;42.75;21.35;;;3.50;43.40;;;;;;7372428;19;20089;-70
2022/12/02 08:16:48;;;;;;;50.38;22.00;;;3.50;43.80;;;;;;7394551;19;20082;-69
2022/12/02 08:19:18;;;;;;;44.42;20.90;;;3.60;45.00;;;;;;7369115;19;20422;-67
2022/12/02 08:21:47;;;;;;;43.33;20.65;;;3.60;45.10;;;;;;7369552;19;20521;-69
2022/12/02 08:24:17;;;;;;;40.90;20.10;;;3.50;45.70;;;;;;7372620;19;20371;-69
2022/12/02 08:26:47;;;;;;;45.28;21.02;;;3.50;45.40;;;;;;7371492;19;20485;-69
2022/12/02 08:29:17;;;;;;;44.05;21.38;;;3.50;46.20;;;;;;7371280;19;20030;-70
2022/12/02 08:31:49;;;;;;;43.88;22.00;;;3.50;46.60;;;;;;7394067;19;20710;-70
2022/12/02 08:34:19;;;;;;;47.15;20.48;;;3.50;47.40;;;;;;7370838;19;20019;-70
2022/12/02 08:36:49;;;;;;;46.63;21.58;;;3.60;48.60;;;;;;7371908;19;20010;-68
2022/12/02 08:39:19;;;;;;;45.35;21.65;;;3.60;48.20;;;;;;7369975;19;20086;-68
2022/12/02 08:41:49;;;;;;;43.22;21.13;;;3.60;48.80;;;;;;7370568;19;20003;-69
2022/12/02 08:44:19;;;;;;;39.38;19.65;;;3.50;48.90;;;;;;7372439;19;20037;-70
2022/12/02 08:46:51;;;;;;;48.40;20.75;;;3.50;48.70;;;;;;7379524;19;20014;-70
2022/12/02 08:49:23;;;;;;;37.65;18.90;;;3.50;49.70;;;;;;7389891;19;20103;-69
2022/12/02 08:51:53;;;;;;;39.35;18.02;;;3.50;49.10;;;;;;7371474;19;20037;-69
2022/12/02 08:54:23;;;;;;;39.60;19.20;;;3.50;49.10;;;;;;7370120;19;20028;-69
2022/12/02 08:56:55;;;;;;;38.72;19.10;;;3.50;49.90;;;;;;7371332;19;20030;-70
2022/12/02 08:59:25;;;;;;;37.10;19.15;;;3.50;50.20;;;;;;7370018;19;20115;-70
2022/12/02 09:01:57;;;;;;;47.25;20.13;;;3.50;50.10;;;;;;7370336;19;20014;-70
2022/12/02 09:04:27;;;;;;;46.22;21.63;;;3.50;50.60;;;;;;7391445;19;20025;-70
2022/12/02 09:06:57;;;;;;;39.15;20.23;;;3.60;50.70;;;;;;7370908;19;20017;-70
2022/12/02 09:09:27;;;;;;;44.72;20.30;;;3.60;50.80;;;;;;7369694;19;20003;-70
2022/12/02 09:11:57;;;;;;;40.75;18.92;;;3.60;50.90;;;;;;7371238;19;20474;-70
2022/12/02 09:14:27;;;;;;;44.13;19.65;;;3.60;50.20;;;;;;7370631;19;20003;-69
2022/12/02 09:16:59;;;;;;;41.03;19.75;;;3.60;50.70;;;;;;7370547;19;20014;-69
2022/12/02 09:19:29;;;;;;;42.80;19.90;;;3.60;50.20;;;;;;7389354;19;20010;-70
2022/12/02 09:21:59;;;;;;;43.42;20.13;;;3.50;49.10;;;;;;7366758;19;20123;-69
2022/12/02 09:24:29;;;;;;;40.05;19.17;;;3.70;50.90;;;;;;7370065;19;20086;-69
2022/12/02 09:26:59;;;;;;;39.80;18.73;;;3.60;49.10;;;;;;7369970;19;20010;-69
2022/12/02 09:29:28;;;;;;;39.20;18.27;;;3.70;49.90;;;;;;7368502;19;20074;-69
2022/12/02 09:32:01;;;;;;;41.42;19.98;;;3.60;49.10;;;;;;7369739;19;20074;-69
2022/12/02 09:34:31;;;;;;;37.67;17.85;;;3.70;50.10;;;;;;7390864;19;20478;-69
2022/12/02 09:37:00;;;;;;;40.05;18.83;;;3.70;49.90;;;;;;7370768;19;20017;-69
2022/12/02 09:39:30;;;;;;;35.28;17.15;;;3.70;50.40;;;;;;7367344;19;20014;-70
2022/12/02 09:42:06;;;;;;;34.03;17.60;;;3.70;49.60;;;;;;7369873;19;20010;-70
2022/12/02 09:44:36;;;;;;;37.50;17.42;;;3.70;50.10;;;;;;7369667;19;20010;-69
2022/12/02 09:47:09;;;;;;;34.40;16.63;;;3.70;50.00;;;;;;7370449;19;20293;-69
2022/12/02 09:49:39;;;;;;;39.08;17.50;;;3.70;49.40;;;;;;7387355;19;20011;-70
2022/12/02 09:52:15;;;;;;;38.53;17.63;;;3.60;49.20;;;;;;7369501;19;20050;-69
2022/12/02 09:54:51;;;;;;;35.75;18.48;;;3.70;50.40;;;;;;7369031;19;20346;-70
2022/12/02 09:57:24;;;;;;;33.95;16.90;;;3.70;50.90;;;;;;7370540;19;20027;-68
2022/12/02 09:59:54;;;;;;;32.20;16.38;;;3.70;50.20;;;;;;7368784;19;20006;-69
2022/12/02 10:02:31;;;;;;;35.63;16.42;;;3.60;50.70;;;;;;7368272;19;20485;-69
2022/12/02 10:05:06;;;;;;;32.55;16.33;;;3.60;50.80;;;;;;7369286;19;20368;-69
2022/12/02 10:07:36;;;;;;;33.45;16.05;;;3.70;50.80;;;;;;7390085;19;20014;-68
2022/12/02 10:10:07;;;;;;;34.28;16.80;;;3.70;50.80;;;;;;7366339;19;20014;-69
2022/12/02 10:12:36;;;;;;;29.30;16.00;;;3.70;50.80;;;;;;7368142;19;20466;-69
2022/12/02 10:15:08;;;;;;;31.88;15.95;;;3.70;51.30;;;;;;7368952;19;20025;-70
2022/12/02 10:17:40;;;;;;;31.63;15.10;;;3.70;51.40;;;;;;7368691;19;20014;-69
2022/12/02 10:20:19;;;;;;;30.30;14.95;;;3.70;50.40;;;;;;7367291;19;20014;-69
2022/12/02 10:23:11;;;;;;;32.20;14.88;;;3.70;50.80;;;;;;7365881;19;20060;-71
2022/12/02 10:25:44;;;;;;;25.02;13.48;;;3.70;49.40;;;;;;7390284;19;20013;-71
2022/12/02 10:28:24;;;;;;;27.40;15.73;;;3.70;49.80;;;;;;7367811;19;20006;-69
2022/12/02 10:30:57;;;;;;;27.65;13.75;;;3.80;51.50;;;;;;7368454;19;20820;-69
2022/12/02 10:33:31;;;;;;;24.92;12.10;;;3.70;50.80;;;;;;7375276;19;20011;-69
2022/12/02 10:36:02;;;;;;;24.85;12.38;;;3.70;50.50;;;;;;7375580;19;20014;-69
2022/12/02 10:38:38;;;;;;;22.08;12.15;;;3.70;49.90;;;;;;7374230;19;20744;-69
2022/12/02 10:41:19;;;;;;;22.55;11.90;;;3.60;49.50;;;;;;7376565;19;20119;-69
2022/12/02 10:44:05;;;;;;;21.30;11.75;;;3.70;50.00;;;;;;7378638;19;20487;-70
2022/12/02 10:46:36;;;;;;;22.52;12.00;;;3.60;49.10;;;;;;7396159;19;20081;-69
2022/12/02 10:49:29;;;;;;;20.63;10.73;;;3.60;49.80;;;;;;7372364;19;20424;-69
2022/12/02 10:52:03;;;;;;;23.05;11.27;;;3.60;49.10;;;;;;7375174;19;20010;-70
2022/12/02 10:54:34;;;;;;;;;;;3.60;49.20;;;;;;7375669;19;20017;-70
2022/12/02 10:57:25;;;;;;;21.77;11.93;;;3.60;50.10;;;;;;7376230;19;19906;-71
2022/12/02 10:59:56;;;;;;;21.23;11.85;;;3.70;49.80;;;;;;7374980;19;20010;-70
2022/12/02 11:02:31;;;;;;;23.58;12.32;;;3.70;49.30;;;;;;7375120;19;20017;-69
2022/12/02 11:05:15;;;;;;;21.77;11.07;;;3.60;49.10;;;;;;7374786;19;20015;-69
2022/12/02 11:07:56;;;;;;;20.20;11.40;;;3.50;49.00;;;;;;7395965;19;20074;-70
2022/12/02 11:10:28;;;;;;;23.13;11.15;;;3.60;49.40;;;;;;7371008;19;20010;-71
2022/12/02 11:13:08;;;;;;;23.95;12.23;;;3.50;49.10;;;;;;7374450;19;20017;-71
2022/12/02 11:15:44;;;;;;;17.98;10.48;;;3.50;49.30;;;;;;7373747;19;20094;-70
2022/12/02 11:18:35;;;;;;;16.40;9.73;;;3.50;49.10;;;;;;7374338;19;20351;-69
2022/12/02 11:21:40;;;;;;;20.63;11.05;;;3.40;49.00;;;;;;7374187;19;20003;-70
2022/12/02 11:24:46;;;;;;;20.42;10.95;;;3.50;49.80;;;;;;7374050;19;20502;-69
2022/12/02 11:27:18;;;;;;;19.23;10.80;;;3.50;49.00;;;;;;7372177;19;20418;-70
2022/12/02 11:30:18;;;;;;;20.70;11.25;;;3.40;49.00;;;;;;7372804;19;20501;-70
2022/12/02 11:32:51;;;;;;;16.75;9.57;;;3.40;49.00;;;;;;7373684;19;20450;-70
2022/12/02 11:35:56;;;;;;;16.63;9.25;;;3.50;49.00;;;;;;7372855;19;20006;-70
2022/12/02 11:38:29;;;;;;;17.65;10.13;;;3.60;50.00;;;;;;7372010;19;20428;-70
2022/12/02 11:41:02;;;;;;;17.30;9.85;;;3.40;49.00;;;;;;7372305;19;20023;-70
2022/12/02 11:44:04;;;;;;;19.70;10.52;;;3.50;49.80;;;;;;7392586;19;20102;-70
2022/12/02 11:46:43;;;;;;;15.90;9.90;;;3.50;50.20;;;;;;7372695;19;20007;-71
2022/12/02 11:49:33;;;;;;;17.85;10.70;;;3.60;49.10;;;;;;7372564;19;20010;-70
2022/12/02 11:52:19;;;;;;;20.27;10.02;;;3.40;49.00;;;;;;7373630;19;20018;-71
2022/12/02 11:55:06;;;;;;;18.63;10.07;;;3.40;49.10;;;;;;7373168;19;20090;-69
2022/12/02 11:57:47;;;;;;;18.80;10.27;;;3.40;49.20;;;;;;7372598;19;20463;-70
2022/12/02 12:00:26;;;;;;;21.95;12.07;;;3.50;50.30;;;;;;7373104;19;20003;-71
2022/12/02 12:03:15;;;;;;;18.75;10.13;;;3.50;50.70;;;;;;7372130;19;20024;-71
2022/12/02 12:06:05;;;;;;;18.98;9.65;;;3.50;50.60;;;;;;7373259;19;20412;-70
2022/12/02 12:08:36;;;;;;;16.27;10.15;;;3.50;49.50;;;;;;7371229;19;20018;-70
2022/12/02 12:11:26;;;;;;;18.42;10.75;;;3.60;50.50;;;;;;7372961;19;20015;-70
2022/12/02 12:14:05;;;;;;;17.90;10.27;;;3.50;50.30;;;;;;7372618;19;20035;-70
2022/12/02 12:16:37;;;;;;;19.60;10.32;;;3.40;49.50;;;;;;7393385;19;20011;-71
2022/12/02 12:19:29;;;;;;;22.48;12.15;;;3.50;49.30;;;;;;7371410;19;20034;-70
2022/12/02 12:21:59;;;;;;;18.88;9.90;;;3.40;49.50;;;;;;7372297;19;20006;-70
2022/12/02 12:24:34;;;;;;;20.48;11.90;;;3.50;50.90;;;;;;7371225;19;20107;-71
2022/12/02 12:27:35;;;;;;;20.70;11.18;;;3.40;49.80;;;;;;7373060;19;20018;-72
2022/12/02 12:30:06;;;;;;;25.10;12.77;;;3.50;50.50;;;;;;7371179;19;20086;-71
2022/12/02 12:32:36;;;;;;;23.00;12.52;;;3.40;50.40;;;;;;7371995;19;20014;-70
2022/12/02 12:35:09;;;;;;;20.38;11.27;;;3.30;48.90;;;;;;7371961;19;20081;-70
2022/12/02 12:37:38;;;;;;;20.35;11.82;;;3.30;49.70;;;;;;7391981;19;20014;-70
2022/12/02 12:40:09;;;;;;;23.95;11.98;;;3.40;49.90;;;;;;7368554;19;20021;-70
2022/12/02 12:42:42;;;;;;;19.77;11.20;;;3.30;50.30;;;;;;7370949;19;20043;-70
2022/12/02 12:45:12;;;;;;;17.67;10.15;;;3.30;50.60;;;;;;7372217;19;20010;-71
2022/12/02 12:47:42;;;;;;;18.02;11.45;;;3.30;50.00;;;;;;7371243;19;20153;-70
2022/12/02 12:50:12;;;;;;;21.25;11.77;;;3.30;50.00;;;;;;7369506;19;20371;-71
2022/12/02 12:52:42;;;;;;;18.58;10.68;;;3.40;50.50;;;;;;7392103;19;20018;-70
2022/12/02 12:55:12;;;;;;;22.10;11.50;;;3.20;49.00;;;;;;7368500;19;20006;-70
2022/12/02 12:57:44;;;;;;;21.58;10.82;;;3.20;50.10;;;;;;7370503;19;20011;-70
2022/12/02 13:00:16;;;;;;;18.48;10.68;;;3.20;49.60;;;;;;7370401;19;20074;-70
2022/12/02 13:02:45;;;;;;;20.88;11.68;;;3.30;50.60;;;;;;7370779;19;20074;-70
2022/12/02 13:05:16;;;;;;;20.83;12.25;;;3.40;50.80;;;;;;7371289;19;20366;-70
2022/12/02 13:07:45;;;;;;;21.17;11.57;;;3.40;50.60;;;;;;7392097;19;20350;-70
2022/12/02 13:10:15;;;;;;;23.33;11.98;;;3.50;51.40;;;;;;7369284;19;20014;-71
2022/12/02 13:12:48;;;;;;;21.58;11.23;;;3.40;50.50;;;;;;7369660;19;20011;-71